AAL544 KDCA-KTPA
Flight info
| Callsign | AAL544 |
|---|---|
| Flight time | 1h 52m |
| Altitude | 34000 |
| Route | JDUBB4 RRSIN GSO Q75 TEUFL BAAMF DADES2 |
| Aircraft | A321/M-SDE3FGHIRWY/LB1 |
Departure
| Time | 2026-05-06 19:48 |
|---|---|
| Airport | Ronald Reagan Washington National Airport (KDCA) |
Arrival
| Time | 2026-05-06 21:40 |
|---|---|
| Airport | Tampa International Airport (KTPA) |
| Time | Latitude | Longitude | Altitude | Speed | Heading |
|---|---|---|---|---|---|
| 2026-05-06 18:50 | 38.85668 | -77.04174 | 24 ft | 0 kts | 231° |
| 2026-05-06 19:39 | 38.85675 | -77.04162 | 26 ft | 4 kts | 231° |
| 2026-05-06 19:40 | 38.85692 | -77.04135 | 27 ft | 4 kts | 231° |
| 2026-05-06 19:40 | 38.85706 | -77.04114 | 27 ft | 4 kts | 213° |
| 2026-05-06 19:40 | 38.85727 | -77.04108 | 25 ft | 4 kts | 155° |
| 2026-05-06 19:40 | 38.85749 | -77.04125 | 28 ft | 4 kts | 142° |
| 2026-05-06 19:41 | 38.85770 | -77.04146 | 24 ft | 4 kts | 142° |
| 2026-05-06 19:41 | 38.85792 | -77.04167 | 25 ft | 4 kts | 142° |
| 2026-05-06 19:41 | 38.85809 | -77.04184 | 27 ft | 0 kts | 142° |
| 2026-05-06 19:44 | 38.85807 | -77.04182 | 27 ft | 1 kts | 142° |
| 2026-05-06 19:44 | 38.85800 | -77.04175 | 26 ft | 2 kts | 142° |
| 2026-05-06 19:44 | 38.85782 | -77.04158 | 26 ft | 6 kts | 142° |
| 2026-05-06 19:45 | 38.85764 | -77.04090 | 25 ft | 11 kts | 71° |
| 2026-05-06 19:45 | 38.85842 | -77.04064 | 25 ft | 13 kts | 354° |
| 2026-05-06 19:45 | 38.85930 | -77.04038 | 25 ft | 13 kts | 51° |
| 2026-05-06 19:45 | 38.85983 | -77.03967 | 25 ft | 9 kts | 32° |
| 2026-05-06 19:46 | 38.85993 | -77.03961 | 24 ft | 0 kts | 25° |
| 2026-05-06 19:46 | 38.85999 | -77.03959 | 26 ft | 3 kts | 18° |
| 2026-05-06 19:46 | 38.86034 | -77.03944 | 24 ft | 8 kts | 19° |
| 2026-05-06 19:46 | 38.86085 | -77.03893 | 23 ft | 11 kts | 85° |
| 2026-05-06 19:47 | 38.86014 | -77.03864 | 24 ft | 12 kts | 180° |
| 2026-05-06 19:47 | 38.85899 | -77.03854 | 27 ft | 35 kts | 176° |
| 2026-05-06 19:47 | 38.85412 | -77.03805 | 25 ft | 103 kts | 175° |
| 2026-05-06 19:47 | 38.84501 | -77.03718 | 101 ft | 150 kts | 175° |
| 2026-05-06 19:48 | 38.83468 | -77.03650 | 803 ft | 149 kts | 179° |
| 2026-05-06 19:48 | 38.82407 | -77.03588 | 1481 ft | 154 kts | 182° |
| 2026-05-06 19:48 | 38.81356 | -77.03549 | 2205 ft | 149 kts | 185° |
| 2026-05-06 19:48 | 38.80318 | -77.03524 | 2758 ft | 149 kts | 187° |
| 2026-05-06 19:49 | 38.79281 | -77.03519 | 3231 ft | 151 kts | 190° |
| 2026-05-06 19:49 | 38.78283 | -77.03992 | 3427 ft | 163 kts | 224° |
| 2026-05-06 19:49 | 38.77448 | -77.05073 | 3594 ft | 184 kts | 227° |
| 2026-05-06 19:49 | 38.76494 | -77.06302 | 3745 ft | 205 kts | 227° |
| 2026-05-06 19:50 | 38.75428 | -77.07660 | 3836 ft | 229 kts | 226° |
| 2026-05-06 19:50 | 38.74249 | -77.09156 | 4154 ft | 245 kts | 227° |
| 2026-05-06 19:50 | 38.73028 | -77.10703 | 4795 ft | 248 kts | 227° |
| 2026-05-06 19:50 | 38.71797 | -77.12262 | 5475 ft | 250 kts | 229° |
| 2026-05-06 19:51 | 38.70557 | -77.13831 | 6152 ft | 251 kts | 229° |
| 2026-05-06 19:51 | 38.69311 | -77.15410 | 6792 ft | 253 kts | 229° |
| 2026-05-06 19:51 | 38.68058 | -77.17000 | 7398 ft | 254 kts | 229° |
| 2026-05-06 19:51 | 38.66799 | -77.18595 | 8070 ft | 255 kts | 229° |
| 2026-05-06 19:52 | 38.65536 | -77.20194 | 8706 ft | 256 kts | 229° |
| 2026-05-06 19:52 | 38.64267 | -77.21800 | 9323 ft | 257 kts | 228° |
| 2026-05-06 19:52 | 38.62998 | -77.23408 | 9975 ft | 257 kts | 229° |
| 2026-05-06 19:52 | 38.61710 | -77.25045 | 10288 ft | 269 kts | 229° |
| 2026-05-06 19:53 | 38.60341 | -77.26793 | 10419 ft | 288 kts | 229° |
| 2026-05-06 19:53 | 38.58881 | -77.28653 | 10541 ft | 305 kts | 229° |
| 2026-05-06 19:53 | 38.57336 | -77.30617 | 10673 ft | 321 kts | 228° |
| 2026-05-06 19:53 | 38.55731 | -77.32648 | 11028 ft | 328 kts | 228° |
| 2026-05-06 19:54 | 38.54099 | -77.34701 | 11523 ft | 331 kts | 228° |
| 2026-05-06 19:54 | 38.52454 | -77.36770 | 12009 ft | 334 kts | 229° |
| 2026-05-06 19:54 | 38.50795 | -77.38866 | 12496 ft | 337 kts | 229° |
| 2026-05-06 19:54 | 38.49143 | -77.40950 | 12988 ft | 340 kts | 229° |
| 2026-05-06 19:55 | 38.47454 | -77.43076 | 13473 ft | 342 kts | 229° |
| 2026-05-06 19:55 | 38.45727 | -77.45243 | 13954 ft | 345 kts | 229° |
| 2026-05-06 19:55 | 38.44036 | -77.47362 | 14391 ft | 347 kts | 230° |
| 2026-05-06 19:55 | 38.42311 | -77.49527 | 14853 ft | 348 kts | 230° |
| 2026-05-06 19:56 | 38.40583 | -77.51695 | 15335 ft | 349 kts | 230° |
| 2026-05-06 19:56 | 38.38849 | -77.53876 | 15800 ft | 351 kts | 230° |
| 2026-05-06 19:56 | 38.37114 | -77.56063 | 16278 ft | 352 kts | 231° |
| 2026-05-06 19:56 | 38.35368 | -77.58257 | 16748 ft | 353 kts | 231° |
| 2026-05-06 19:57 | 38.33613 | -77.60456 | 17194 ft | 355 kts | 231° |
| 2026-05-06 19:57 | 38.31852 | -77.62663 | 17616 ft | 356 kts | 231° |
| 2026-05-06 19:57 | 38.30080 | -77.64879 | 18041 ft | 358 kts | 230° |
| 2026-05-06 19:57 | 38.28238 | -77.67032 | 18438 ft | 361 kts | 228° |
| 2026-05-06 19:58 | 38.26325 | -77.69117 | 18811 ft | 363 kts | 227° |
| 2026-05-06 19:58 | 38.24376 | -77.71168 | 19163 ft | 365 kts | 226° |
| 2026-05-06 19:58 | 38.22408 | -77.73213 | 19520 ft | 365 kts | 226° |
| 2026-05-06 19:58 | 38.20440 | -77.75264 | 19877 ft | 366 kts | 227° |
| 2026-05-06 19:59 | 38.18472 | -77.77336 | 20229 ft | 367 kts | 227° |
| 2026-05-06 19:59 | 38.16511 | -77.79422 | 20589 ft | 369 kts | 227° |
| 2026-05-06 19:59 | 38.14544 | -77.81524 | 20950 ft | 370 kts | 227° |
| 2026-05-06 19:59 | 38.12572 | -77.83634 | 21303 ft | 371 kts | 227° |
| 2026-05-06 20:00 | 38.10592 | -77.85752 | 21638 ft | 373 kts | 227° |
| 2026-05-06 20:00 | 38.08596 | -77.87884 | 21932 ft | 375 kts | 227° |
| 2026-05-06 20:00 | 38.06595 | -77.90015 | 22307 ft | 376 kts | 227° |
| 2026-05-06 20:00 | 38.04590 | -77.92149 | 22660 ft | 377 kts | 227° |
| 2026-05-06 20:01 | 38.02602 | -77.94267 | 22953 ft | 379 kts | 227° |
| 2026-05-06 20:01 | 38.00552 | -77.96453 | 23229 ft | 382 kts | 226° |
| 2026-05-06 20:01 | 37.98536 | -77.98598 | 23510 ft | 384 kts | 226° |
| 2026-05-06 20:01 | 37.96482 | -78.00777 | 23750 ft | 386 kts | 226° |
| 2026-05-06 20:02 | 37.94422 | -78.02957 | 24020 ft | 387 kts | 226° |
| 2026-05-06 20:02 | 37.92356 | -78.05148 | 24293 ft | 388 kts | 226° |
| 2026-05-06 20:02 | 37.90285 | -78.07347 | 24548 ft | 389 kts | 226° |
| 2026-05-06 20:02 | 37.88204 | -78.09551 | 24804 ft | 391 kts | 226° |
| 2026-05-06 20:03 | 37.86117 | -78.11758 | 25059 ft | 392 kts | 226° |
| 2026-05-06 20:03 | 37.84022 | -78.13977 | 25320 ft | 393 kts | 226° |
| 2026-05-06 20:03 | 37.81926 | -78.16195 | 25576 ft | 394 kts | 226° |
| 2026-05-06 20:03 | 37.79817 | -78.18423 | 25825 ft | 395 kts | 226° |
| 2026-05-06 20:04 | 37.77702 | -78.20654 | 26091 ft | 397 kts | 226° |
| 2026-05-06 20:04 | 37.75579 | -78.22891 | 26332 ft | 398 kts | 226° |
| 2026-05-06 20:04 | 37.73450 | -78.25130 | 26574 ft | 399 kts | 226° |
| 2026-05-06 20:04 | 37.71313 | -78.27379 | 26814 ft | 400 kts | 226° |
| 2026-05-06 20:05 | 37.69167 | -78.29632 | 27057 ft | 402 kts | 226° |
| 2026-05-06 20:05 | 37.67016 | -78.31888 | 27284 ft | 403 kts | 226° |
| 2026-05-06 20:05 | 37.64854 | -78.34154 | 27500 ft | 404 kts | 226° |
| 2026-05-06 20:05 | 37.62689 | -78.36425 | 27709 ft | 405 kts | 226° |
| 2026-05-06 20:06 | 37.60516 | -78.38702 | 27872 ft | 407 kts | 225° |
| 2026-05-06 20:06 | 37.58331 | -78.40990 | 28000 ft | 410 kts | 225° |
| 2026-05-06 20:06 | 37.56133 | -78.43289 | 28155 ft | 411 kts | 224° |
| 2026-05-06 20:06 | 37.53926 | -78.45592 | 28335 ft | 413 kts | 224° |
| 2026-05-06 20:07 | 37.51711 | -78.47899 | 28508 ft | 414 kts | 224° |
| 2026-05-06 20:07 | 37.49492 | -78.50212 | 28687 ft | 414 kts | 224° |
| 2026-05-06 20:07 | 37.47275 | -78.52524 | 28922 ft | 414 kts | 224° |
| 2026-05-06 20:07 | 37.45061 | -78.54832 | 29167 ft | 413 kts | 224° |
| 2026-05-06 20:08 | 37.42847 | -78.57127 | 29405 ft | 412 kts | 224° |
| 2026-05-06 20:08 | 37.40633 | -78.59413 | 29650 ft | 411 kts | 224° |
| 2026-05-06 20:08 | 37.38423 | -78.61694 | 29827 ft | 412 kts | 223° |
| 2026-05-06 20:08 | 37.36201 | -78.63983 | 29980 ft | 413 kts | 223° |
| 2026-05-06 20:09 | 37.34005 | -78.66240 | 30155 ft | 414 kts | 223° |
| 2026-05-06 20:09 | 37.31775 | -78.68527 | 30349 ft | 413 kts | 224° |
| 2026-05-06 20:09 | 37.29553 | -78.70806 | 30568 ft | 412 kts | 224° |
| 2026-05-06 20:09 | 37.27338 | -78.73078 | 30782 ft | 411 kts | 224° |
| 2026-05-06 20:10 | 37.25131 | -78.75343 | 30985 ft | 410 kts | 225° |
| 2026-05-06 20:10 | 37.22924 | -78.77608 | 31168 ft | 409 kts | 225° |
| 2026-05-06 20:10 | 37.20721 | -78.79866 | 31340 ft | 409 kts | 225° |
| 2026-05-06 20:10 | 37.18522 | -78.82121 | 31500 ft | 408 kts | 225° |
| 2026-05-06 20:11 | 37.16319 | -78.84381 | 31633 ft | 409 kts | 225° |
| 2026-05-06 20:11 | 37.14115 | -78.86643 | 31761 ft | 410 kts | 225° |
| 2026-05-06 20:11 | 37.11903 | -78.88910 | 31916 ft | 411 kts | 226° |
| 2026-05-06 20:11 | 37.09691 | -78.91172 | 32100 ft | 410 kts | 226° |
| 2026-05-06 20:12 | 37.07478 | -78.93429 | 32297 ft | 410 kts | 226° |
| 2026-05-06 20:12 | 37.05268 | -78.95677 | 32477 ft | 409 kts | 226° |
| 2026-05-06 20:12 | 37.03057 | -78.97923 | 32650 ft | 409 kts | 226° |
| 2026-05-06 20:12 | 37.00854 | -79.00160 | 32833 ft | 408 kts | 226° |
| 2026-05-06 20:13 | 36.98650 | -79.02399 | 33008 ft | 407 kts | 227° |
| 2026-05-06 20:13 | 36.97194 | -79.03877 | 33126 ft | 407 kts | 227° |
| 2026-05-06 20:13 | 36.94997 | -79.06109 | 33257 ft | 407 kts | 227° |
| 2026-05-06 20:13 | 36.92802 | -79.08347 | 33420 ft | 407 kts | 228° |
| 2026-05-06 20:14 | 36.90621 | -79.10585 | 33617 ft | 406 kts | 228° |
| 2026-05-06 20:14 | 36.88445 | -79.12822 | 33798 ft | 405 kts | 229° |
| 2026-05-06 20:14 | 36.86277 | -79.15058 | 33923 ft | 404 kts | 229° |
| 2026-05-06 20:14 | 36.84110 | -79.17288 | 33945 ft | 403 kts | 229° |
| 2026-05-06 20:15 | 36.79774 | -79.21721 | 33949 ft | 403 kts | 229° |
| 2026-05-06 20:15 | 36.75439 | -79.26140 | 33946 ft | 402 kts | 229° |
| 2026-05-06 20:16 | 36.71097 | -79.30574 | 33944 ft | 405 kts | 229° |
| 2026-05-06 20:16 | 36.66739 | -79.35020 | 33946 ft | 405 kts | 229° |
| 2026-05-06 20:17 | 36.62397 | -79.39439 | 33950 ft | 406 kts | 229° |
| 2026-05-06 20:17 | 36.58029 | -79.43882 | 33970 ft | 405 kts | 229° |
| 2026-05-06 20:18 | 36.53660 | -79.48300 | 33983 ft | 404 kts | 229° |
| 2026-05-06 20:18 | 36.49309 | -79.52700 | 33962 ft | 403 kts | 229° |
| 2026-05-06 20:19 | 36.44971 | -79.57094 | 33972 ft | 402 kts | 229° |
| 2026-05-06 20:19 | 36.40629 | -79.61478 | 33973 ft | 402 kts | 229° |
| 2026-05-06 20:20 | 36.36291 | -79.65847 | 33976 ft | 402 kts | 229° |
| 2026-05-06 20:20 | 36.31952 | -79.70216 | 33985 ft | 402 kts | 229° |
| 2026-05-06 20:21 | 36.27617 | -79.74578 | 33956 ft | 402 kts | 229° |
| 2026-05-06 20:21 | 36.23271 | -79.78946 | 33960 ft | 403 kts | 229° |
| 2026-05-06 20:22 | 36.18950 | -79.83282 | 33984 ft | 402 kts | 229° |
| 2026-05-06 20:22 | 36.14602 | -79.87628 | 33991 ft | 401 kts | 229° |
| 2026-05-06 20:23 | 36.10262 | -79.91953 | 33989 ft | 401 kts | 229° |
| 2026-05-06 20:23 | 36.05912 | -79.96261 | 33961 ft | 403 kts | 225° |
| 2026-05-06 20:24 | 36.03493 | -79.98114 | 33951 ft | 416 kts | 216° |
| 2026-05-06 20:24 | 36.00803 | -79.99527 | 33952 ft | 423 kts | 212° |
| 2026-05-06 20:24 | 35.95325 | -80.02215 | 33958 ft | 424 kts | 212° |
| 2026-05-06 20:25 | 35.89841 | -80.04911 | 33971 ft | 424 kts | 212° |
| 2026-05-06 20:25 | 35.84363 | -80.07620 | 33988 ft | 424 kts | 212° |
| 2026-05-06 20:26 | 35.78869 | -80.10334 | 33957 ft | 427 kts | 212° |
| 2026-05-06 20:26 | 35.73341 | -80.13055 | 33960 ft | 429 kts | 212° |
| 2026-05-06 20:27 | 35.67793 | -80.15777 | 33966 ft | 430 kts | 211° |
| 2026-05-06 20:27 | 35.62236 | -80.18501 | 33995 ft | 430 kts | 212° |
| 2026-05-06 20:28 | 35.56726 | -80.21203 | 34033 ft | 429 kts | 212° |
| 2026-05-06 20:28 | 35.51189 | -80.23907 | 34042 ft | 428 kts | 211° |
| 2026-05-06 20:29 | 35.45654 | -80.26599 | 34045 ft | 428 kts | 211° |
| 2026-05-06 20:29 | 35.40127 | -80.29293 | 34042 ft | 427 kts | 212° |
| 2026-05-06 20:30 | 35.31845 | -80.33336 | 34000 ft | 428 kts | 211° |
| 2026-05-06 20:31 | 35.26302 | -80.36028 | 33993 ft | 429 kts | 211° |
| 2026-05-06 20:31 | 35.20745 | -80.38720 | 33990 ft | 430 kts | 211° |
| 2026-05-06 20:32 | 35.15177 | -80.41410 | 33986 ft | 430 kts | 211° |
| 2026-05-06 20:32 | 35.09610 | -80.44103 | 33970 ft | 431 kts | 210° |
| 2026-05-06 20:33 | 35.04022 | -80.46802 | 33974 ft | 432 kts | 210° |
| 2026-05-06 20:33 | 34.98427 | -80.49500 | 33978 ft | 433 kts | 210° |
| 2026-05-06 20:34 | 34.92820 | -80.52196 | 33986 ft | 433 kts | 210° |
| 2026-05-06 20:34 | 34.87246 | -80.54869 | 33981 ft | 434 kts | 210° |
| 2026-05-06 20:35 | 34.81625 | -80.57567 | 33986 ft | 435 kts | 210° |
| 2026-05-06 20:35 | 34.75994 | -80.60269 | 33994 ft | 435 kts | 210° |
| 2026-05-06 20:36 | 34.70357 | -80.62973 | 33998 ft | 436 kts | 210° |
| 2026-05-06 20:36 | 34.64867 | -80.65957 | 34001 ft | 425 kts | 220° |
| 2026-05-06 20:37 | 34.60340 | -80.70357 | 33978 ft | 414 kts | 230° |
| 2026-05-06 20:37 | 34.56042 | -80.75032 | 33983 ft | 416 kts | 230° |
| 2026-05-06 20:38 | 34.51722 | -80.79706 | 33992 ft | 416 kts | 230° |
| 2026-05-06 20:38 | 34.47427 | -80.84349 | 34000 ft | 417 kts | 230° |
| 2026-05-06 20:39 | 34.43097 | -80.89028 | 34007 ft | 417 kts | 230° |
| 2026-05-06 20:39 | 34.38764 | -80.93694 | 33997 ft | 417 kts | 229° |
| 2026-05-06 20:40 | 34.34427 | -80.98357 | 34018 ft | 417 kts | 230° |
| 2026-05-06 20:40 | 34.29580 | -81.02368 | 34019 ft | 435 kts | 213° |
| 2026-05-06 20:41 | 34.23753 | -81.04743 | 34023 ft | 444 kts | 207° |
| 2026-05-06 20:41 | 34.17869 | -81.06993 | 34018 ft | 443 kts | 207° |
| 2026-05-06 20:42 | 34.11987 | -81.09261 | 33989 ft | 444 kts | 208° |
| 2026-05-06 20:42 | 34.06093 | -81.11530 | 33981 ft | 445 kts | 207° |
| 2026-05-06 20:43 | 34.00186 | -81.13801 | 33985 ft | 446 kts | 207° |
| 2026-05-06 20:43 | 33.94264 | -81.16061 | 33993 ft | 447 kts | 207° |
| 2026-05-06 20:44 | 33.88341 | -81.18316 | 33975 ft | 447 kts | 208° |
| 2026-05-06 20:44 | 33.82455 | -81.20563 | 33996 ft | 446 kts | 208° |
| 2026-05-06 20:45 | 33.76535 | -81.22825 | 34005 ft | 446 kts | 208° |
| 2026-05-06 20:45 | 33.70612 | -81.25081 | 34002 ft | 446 kts | 208° |
| 2026-05-06 20:46 | 33.64690 | -81.27322 | 34003 ft | 446 kts | 208° |
| 2026-05-06 20:46 | 33.58774 | -81.29562 | 33999 ft | 445 kts | 207° |
| 2026-05-06 20:47 | 33.52871 | -81.31803 | 34016 ft | 445 kts | 207° |
| 2026-05-06 20:47 | 33.46980 | -81.34040 | 34032 ft | 444 kts | 207° |
| 2026-05-06 20:48 | 33.41098 | -81.36261 | 34024 ft | 443 kts | 207° |
| 2026-05-06 20:48 | 33.35207 | -81.38475 | 33984 ft | 444 kts | 208° |
| 2026-05-06 20:49 | 33.29309 | -81.40692 | 33985 ft | 445 kts | 208° |
| 2026-05-06 20:49 | 33.23442 | -81.43019 | 33990 ft | 443 kts | 210° |
| 2026-05-06 20:50 | 33.17664 | -81.45552 | 33997 ft | 442 kts | 211° |
| 2026-05-06 20:50 | 33.11893 | -81.48104 | 34006 ft | 443 kts | 211° |
| 2026-05-06 20:51 | 33.06089 | -81.50598 | 34012 ft | 444 kts | 210° |
| 2026-05-06 20:51 | 33.00265 | -81.53063 | 34014 ft | 444 kts | 210° |
| 2026-05-06 20:52 | 32.94448 | -81.55532 | 34016 ft | 444 kts | 210° |
| 2026-05-06 20:52 | 32.88636 | -81.58026 | 34030 ft | 443 kts | 211° |
| 2026-05-06 20:53 | 32.82923 | -81.60614 | 34016 ft | 442 kts | 212° |
| 2026-05-06 20:53 | 32.77184 | -81.63263 | 34026 ft | 443 kts | 211° |
| 2026-05-06 20:54 | 32.71423 | -81.65885 | 34031 ft | 443 kts | 211° |
| 2026-05-06 20:54 | 32.65654 | -81.68488 | 34036 ft | 444 kts | 211° |
| 2026-05-06 20:55 | 32.59886 | -81.71081 | 34017 ft | 444 kts | 210° |
| 2026-05-06 20:55 | 32.54106 | -81.73672 | 33998 ft | 444 kts | 210° |
| 2026-05-06 20:56 | 32.48326 | -81.76271 | 34002 ft | 444 kts | 210° |
| 2026-05-06 20:56 | 32.42547 | -81.78865 | 34007 ft | 444 kts | 210° |
| 2026-05-06 20:57 | 32.36758 | -81.81451 | 34018 ft | 445 kts | 210° |
| 2026-05-06 20:57 | 32.30968 | -81.84038 | 34010 ft | 445 kts | 211° |
| 2026-05-06 20:58 | 32.25163 | -81.86631 | 34014 ft | 447 kts | 211° |
| 2026-05-06 20:58 | 32.19345 | -81.89228 | 34020 ft | 447 kts | 211° |
| 2026-05-06 20:59 | 32.13514 | -81.91818 | 34028 ft | 449 kts | 210° |
| 2026-05-06 20:59 | 32.07599 | -81.94136 | 34012 ft | 453 kts | 207° |
| 2026-05-06 21:00 | 32.01551 | -81.96300 | 34013 ft | 455 kts | 206° |
| 2026-05-06 21:00 | 31.95503 | -81.98488 | 34023 ft | 455 kts | 208° |
| 2026-05-06 21:01 | 31.89465 | -82.00731 | 34027 ft | 455 kts | 208° |
| 2026-05-06 21:01 | 31.83294 | -82.02655 | 34034 ft | 463 kts | 202° |
| 2026-05-06 21:02 | 31.76989 | -82.04252 | 34010 ft | 464 kts | 202° |
| 2026-05-06 21:02 | 31.70661 | -82.05844 | 34017 ft | 465 kts | 202° |
| 2026-05-06 21:03 | 31.64323 | -82.07447 | 34028 ft | 466 kts | 202° |
| 2026-05-06 21:03 | 31.57986 | -82.09051 | 34048 ft | 466 kts | 202° |
| 2026-05-06 21:04 | 31.51638 | -82.10649 | 34036 ft | 467 kts | 202° |
| 2026-05-06 21:04 | 31.45328 | -82.12228 | 34041 ft | 467 kts | 202° |
| 2026-05-06 21:05 | 31.38973 | -82.13823 | 34037 ft | 467 kts | 202° |
| 2026-05-06 21:05 | 31.32616 | -82.15416 | 34044 ft | 467 kts | 202° |
| 2026-05-06 21:06 | 31.27337 | -82.16738 | 34024 ft | 467 kts | 201° |
| 2026-05-06 21:06 | 31.19898 | -82.18603 | 34032 ft | 468 kts | 201° |
| 2026-05-06 21:07 | 31.13524 | -82.20198 | 34054 ft | 469 kts | 201° |
| 2026-05-06 21:07 | 31.07143 | -82.21785 | 34065 ft | 469 kts | 201° |
| 2026-05-06 21:08 | 31.01839 | -82.23109 | 34088 ft | 469 kts | 201° |
| 2026-05-06 21:08 | 30.95455 | -82.24698 | 34110 ft | 469 kts | 201° |
| 2026-05-06 21:09 | 30.89071 | -82.26284 | 34123 ft | 469 kts | 201° |
| 2026-05-06 21:09 | 30.81650 | -82.28114 | 34141 ft | 469 kts | 201° |
| 2026-05-06 21:10 | 30.76304 | -82.29437 | 34139 ft | 469 kts | 201° |
| 2026-05-06 21:10 | 30.69917 | -82.31018 | 34138 ft | 469 kts | 201° |
| 2026-05-06 21:11 | 30.63424 | -82.32206 | 34145 ft | 476 kts | 195° |
| 2026-05-06 21:11 | 30.56880 | -82.33022 | 34147 ft | 476 kts | 194° |
| 2026-05-06 21:12 | 30.50297 | -82.33825 | 34160 ft | 476 kts | 194° |
| 2026-05-06 21:12 | 30.43707 | -82.34641 | 34159 ft | 476 kts | 194° |
| 2026-05-06 21:13 | 30.37125 | -82.35461 | 34154 ft | 476 kts | 194° |
| 2026-05-06 21:13 | 30.30542 | -82.36288 | 34156 ft | 476 kts | 194° |
| 2026-05-06 21:14 | 30.23961 | -82.37112 | 34135 ft | 476 kts | 194° |
| 2026-05-06 21:14 | 30.17365 | -82.37874 | 34102 ft | 480 kts | 190° |
| 2026-05-06 21:15 | 30.10623 | -82.37601 | 34114 ft | 486 kts | 185° |
| 2026-05-06 21:15 | 30.03867 | -82.37217 | 34082 ft | 486 kts | 185° |
| 2026-05-06 21:15 | 30.00491 | -82.37031 | 33816 ft | 485 kts | 185° |
| 2026-05-06 21:16 | 29.97170 | -82.36846 | 33561 ft | 484 kts | 185° |
| 2026-05-06 21:16 | 29.93761 | -82.36656 | 33289 ft | 484 kts | 185° |
| 2026-05-06 21:16 | 29.90442 | -82.36470 | 32663 ft | 485 kts | 185° |
| 2026-05-06 21:16 | 29.87053 | -82.36283 | 31722 ft | 489 kts | 185° |
| 2026-05-06 21:17 | 29.83651 | -82.36096 | 31038 ft | 488 kts | 185° |
| 2026-05-06 21:17 | 29.80278 | -82.35906 | 30494 ft | 483 kts | 184° |
| 2026-05-06 21:17 | 29.76932 | -82.35715 | 29874 ft | 480 kts | 184° |
| 2026-05-06 21:17 | 29.73611 | -82.35526 | 29292 ft | 475 kts | 184° |
| 2026-05-06 21:18 | 29.70324 | -82.35341 | 28719 ft | 470 kts | 184° |
| 2026-05-06 21:18 | 29.67078 | -82.35163 | 28141 ft | 466 kts | 184° |
| 2026-05-06 21:18 | 29.63856 | -82.34987 | 27586 ft | 461 kts | 184° |
| 2026-05-06 21:18 | 29.60667 | -82.34812 | 27047 ft | 456 kts | 184° |
| 2026-05-06 21:19 | 29.57512 | -82.34638 | 26511 ft | 451 kts | 184° |
| 2026-05-06 21:19 | 29.54391 | -82.34466 | 25982 ft | 447 kts | 184° |
| 2026-05-06 21:19 | 29.51300 | -82.34294 | 25448 ft | 443 kts | 184° |
| 2026-05-06 21:19 | 29.48235 | -82.34123 | 24935 ft | 439 kts | 184° |
| 2026-05-06 21:20 | 29.45194 | -82.33955 | 24428 ft | 435 kts | 184° |
| 2026-05-06 21:20 | 29.42186 | -82.33793 | 23940 ft | 432 kts | 184° |
| 2026-05-06 21:20 | 29.39198 | -82.33615 | 23409 ft | 429 kts | 182° |
| 2026-05-06 21:20 | 29.36273 | -82.33340 | 22930 ft | 425 kts | 180° |
| 2026-05-06 21:21 | 29.33346 | -82.32983 | 22462 ft | 420 kts | 179° |
| 2026-05-06 21:21 | 29.30465 | -82.32591 | 22003 ft | 415 kts | 179° |
| 2026-05-06 21:21 | 29.27616 | -82.32199 | 21567 ft | 410 kts | 179° |
| 2026-05-06 21:21 | 29.24804 | -82.31825 | 21110 ft | 405 kts | 179° |
| 2026-05-06 21:22 | 29.22019 | -82.31474 | 20661 ft | 400 kts | 179° |
| 2026-05-06 21:22 | 29.19266 | -82.31144 | 20206 ft | 396 kts | 179° |
| 2026-05-06 21:22 | 29.16537 | -82.30827 | 19752 ft | 392 kts | 179° |
| 2026-05-06 21:22 | 29.13836 | -82.30517 | 19288 ft | 388 kts | 178° |
| 2026-05-06 21:23 | 29.11161 | -82.30205 | 18832 ft | 385 kts | 178° |
| 2026-05-06 21:23 | 29.08502 | -82.29890 | 18298 ft | 384 kts | 178° |
| 2026-05-06 21:23 | 29.05855 | -82.29575 | 17773 ft | 380 kts | 177° |
| 2026-05-06 21:23 | 29.03239 | -82.29264 | 17295 ft | 376 kts | 177° |
| 2026-05-06 21:24 | 29.00649 | -82.28958 | 16818 ft | 372 kts | 177° |
| 2026-05-06 21:24 | 28.98085 | -82.28657 | 16339 ft | 369 kts | 176° |
| 2026-05-06 21:24 | 28.95545 | -82.28359 | 15874 ft | 365 kts | 176° |
| 2026-05-06 21:24 | 28.93028 | -82.28064 | 15401 ft | 362 kts | 176° |
| 2026-05-06 21:25 | 28.90527 | -82.27767 | 14930 ft | 360 kts | 176° |
| 2026-05-06 21:25 | 28.88048 | -82.27469 | 14465 ft | 357 kts | 176° |
| 2026-05-06 21:25 | 28.85585 | -82.27175 | 13996 ft | 355 kts | 176° |
| 2026-05-06 21:25 | 28.83167 | -82.26886 | 13517 ft | 352 kts | 175° |
| 2026-05-06 21:26 | 28.80774 | -82.26601 | 13377 ft | 339 kts | 175° |
| 2026-05-06 21:26 | 28.78475 | -82.26327 | 13239 ft | 326 kts | 175° |
| 2026-05-06 21:26 | 28.76244 | -82.26064 | 12927 ft | 320 kts | 175° |
| 2026-05-06 21:26 | 28.74074 | -82.25815 | 12985 ft | 312 kts | 178° |
| 2026-05-06 21:27 | 28.71880 | -82.25755 | 12742 ft | 316 kts | 180° |
| 2026-05-06 21:27 | 28.69691 | -82.25724 | 12435 ft | 314 kts | 180° |
| 2026-05-06 21:27 | 28.67513 | -82.25697 | 12135 ft | 312 kts | 180° |
| 2026-05-06 21:27 | 28.65348 | -82.25671 | 11829 ft | 310 kts | 181° |
| 2026-05-06 21:28 | 28.63190 | -82.25643 | 11538 ft | 309 kts | 180° |
| 2026-05-06 21:28 | 28.61048 | -82.25608 | 11247 ft | 307 kts | 180° |
| 2026-05-06 21:28 | 28.58917 | -82.25567 | 10950 ft | 305 kts | 180° |
| 2026-05-06 21:28 | 28.56803 | -82.25524 | 10661 ft | 303 kts | 180° |
| 2026-05-06 21:29 | 28.54695 | -82.25482 | 10375 ft | 301 kts | 180° |
| 2026-05-06 21:29 | 28.52610 | -82.25442 | 10092 ft | 299 kts | 179° |
| 2026-05-06 21:29 | 28.50538 | -82.25406 | 9797 ft | 297 kts | 179° |
| 2026-05-06 21:29 | 28.48508 | -82.25375 | 9506 ft | 295 kts | 179° |
| 2026-05-06 21:30 | 28.46460 | -82.25349 | 9214 ft | 294 kts | 179° |
| 2026-05-06 21:30 | 28.44424 | -82.25325 | 8935 ft | 292 kts | 180° |
| 2026-05-06 21:30 | 28.42392 | -82.25301 | 8659 ft | 292 kts | 179° |
| 2026-05-06 21:30 | 28.40365 | -82.25276 | 8381 ft | 290 kts | 179° |
| 2026-05-06 21:31 | 28.38352 | -82.25274 | 8105 ft | 289 kts | 184° |
| 2026-05-06 21:31 | 28.36397 | -82.25735 | 7828 ft | 287 kts | 200° |
| 2026-05-06 21:31 | 28.34644 | -82.26788 | 7550 ft | 286 kts | 217° |
| 2026-05-06 21:31 | 28.33116 | -82.28227 | 7261 ft | 285 kts | 220° |
| 2026-05-06 21:32 | 28.31623 | -82.29695 | 6994 ft | 283 kts | 225° |
| 2026-05-06 21:32 | 28.29759 | -82.33539 | 6445 ft | 281 kts | 258° |
| 2026-05-06 21:32 | 28.29488 | -82.35722 | 6189 ft | 276 kts | 262° |
| 2026-05-06 21:33 | 28.29250 | -82.37839 | 6073 ft | 265 kts | 262° |
| 2026-05-06 21:33 | 28.29020 | -82.39847 | 6010 ft | 257 kts | 263° |
| 2026-05-06 21:33 | 28.28850 | -82.41875 | 6013 ft | 260 kts | 266° |
| 2026-05-06 21:33 | 28.28762 | -82.43940 | 5744 ft | 267 kts | 262° |
| 2026-05-06 21:34 | 28.28083 | -82.45908 | 5164 ft | 273 kts | 231° |
| 2026-05-06 21:34 | 28.26704 | -82.47372 | 4740 ft | 272 kts | 215° |
| 2026-05-06 21:34 | 28.25091 | -82.48477 | 4343 ft | 270 kts | 205° |
| 2026-05-06 21:34 | 28.23401 | -82.49391 | 4074 ft | 266 kts | 203° |
| 2026-05-06 21:35 | 28.21756 | -82.50257 | 3943 ft | 254 kts | 204° |
| 2026-05-06 21:35 | 28.20190 | -82.51077 | 3669 ft | 244 kts | 204° |
| 2026-05-06 21:35 | 28.18661 | -82.51870 | 3253 ft | 240 kts | 202° |
| 2026-05-06 21:35 | 28.17076 | -82.52240 | 3033 ft | 228 kts | 182° |
| 2026-05-06 21:36 | 28.15517 | -82.52269 | 3001 ft | 221 kts | 178° |
| 2026-05-06 21:36 | 28.13999 | -82.52302 | 2885 ft | 213 kts | 180° |
| 2026-05-06 21:36 | 28.12560 | -82.52348 | 2657 ft | 203 kts | 180° |
| 2026-05-06 21:36 | 28.11171 | -82.52396 | 2398 ft | 195 kts | 181° |
| 2026-05-06 21:37 | 28.09875 | -82.52440 | 2164 ft | 184 kts | 183° |
| 2026-05-06 21:37 | 28.08629 | -82.52482 | 1941 ft | 176 kts | 184° |
| 2026-05-06 21:37 | 28.07427 | -82.52523 | 1713 ft | 169 kts | 186° |
| 2026-05-06 21:37 | 28.06293 | -82.52561 | 1516 ft | 156 kts | 185° |
| 2026-05-06 21:38 | 28.05222 | -82.52598 | 1314 ft | 151 kts | 186° |
| 2026-05-06 21:38 | 28.04178 | -82.52634 | 1116 ft | 150 kts | 186° |
| 2026-05-06 21:38 | 28.03150 | -82.52669 | 920 ft | 146 kts | 187° |
| 2026-05-06 21:38 | 28.02121 | -82.52705 | 734 ft | 148 kts | 185° |
| 2026-05-06 21:39 | 28.01078 | -82.52741 | 540 ft | 149 kts | 184° |
| 2026-05-06 21:39 | 28.00026 | -82.52774 | 306 ft | 152 kts | 183° |
| 2026-05-06 21:39 | 27.98998 | -82.52802 | 139 ft | 147 kts | 185° |
| 2026-05-06 21:39 | 27.98044 | -82.52851 | 42 ft | 132 kts | 180° |
| 2026-05-06 21:40 | 27.97291 | -82.52871 | 38 ft | 71 kts | 181° |
| 2026-05-06 21:40 | 27.97063 | -82.52879 | 35 ft | 16 kts | 182° |
| 2026-05-06 21:40 | 27.96958 | -82.52906 | 36 ft | 15 kts | 231° |
| 2026-05-06 21:40 | 27.96962 | -82.52993 | 39 ft | 7 kts | 315° |
| 2026-05-06 21:41 | 27.96971 | -82.52998 | 39 ft | 0 kts | 334° |
| 2026-05-06 21:42 | 27.96989 | -82.53003 | 39 ft | 6 kts | 349° |
| 2026-05-06 21:42 | 27.97053 | -82.52999 | 36 ft | 11 kts | 359° |
| 2026-05-06 21:42 | 27.97127 | -82.53000 | 38 ft | 11 kts | 1° |
| 2026-05-06 21:42 | 27.97205 | -82.52997 | 41 ft | 12 kts | 2° |
| 2026-05-06 21:43 | 27.97293 | -82.53017 | 42 ft | 14 kts | 312° |
| 2026-05-06 21:43 | 27.97307 | -82.53123 | 43 ft | 13 kts | 272° |
| 2026-05-06 21:43 | 27.97310 | -82.53219 | 43 ft | 12 kts | 272° |
| 2026-05-06 21:43 | 27.97313 | -82.53322 | 43 ft | 14 kts | 272° |
| 2026-05-06 21:44 | 27.97317 | -82.53437 | 46 ft | 14 kts | 272° |
| 2026-05-06 21:44 | 27.97327 | -82.53545 | 50 ft | 13 kts | 282° |
| 2026-05-06 21:44 | 27.97353 | -82.53633 | 54 ft | 12 kts | 294° |
| 2026-05-06 21:44 | 27.97399 | -82.53724 | 52 ft | 16 kts | 303° |
| 2026-05-06 21:45 | 27.97470 | -82.53846 | 46 ft | 20 kts | 304° |
| 2026-05-06 21:45 | 27.97534 | -82.53968 | 46 ft | 15 kts | 320° |
| 2026-05-06 21:45 | 27.97633 | -82.53983 | 46 ft | 15 kts | 2° |
| 2026-05-06 21:45 | 27.97741 | -82.53977 | 46 ft | 16 kts | 6° |
| 2026-05-06 21:46 | 27.97797 | -82.53923 | 44 ft | 9 kts | 111° |
| 2026-05-06 21:46 | 27.97769 | -82.53896 | 43 ft | 3 kts | 144° |
| 2026-05-06 21:46 | 27.97756 | -82.53885 | 43 ft | 0 kts | 145° |